sensor_id;sensor_type;location;lat;lon;timestamp;pressure;altitude;pressure_sealevel;temperature;humidity
6853;BME280;3465;42.144;24.722;2023-03-14T00:00:04;144063.69;;;4.56;73.87
6853;BME280;3465;42.144;24.722;2023-03-14T00:02:31;144063.69;;;4.56;74.88
6853;BME280;3465;42.144;24.722;2023-03-14T00:04:56;144035.09;;;4.45;75.34
6853;BME280;3465;42.144;24.722;2023-03-14T00:07:22;144041.31;;;4.47;75.28
6853;BME280;3465;42.144;24.722;2023-03-14T00:09:50;144025.13;;;4.40;75.37
6853;BME280;3465;42.144;24.722;2023-03-14T00:12:15;143960.34;;;4.14;76.91
6853;BME280;3465;42.144;24.722;2023-03-14T00:14:41;143920.53;;;3.98;77.82
6853;BME280;3465;42.144;24.722;2023-03-14T00:17:08;143865.75;;;3.76;78.30
6853;BME280;3465;42.144;24.722;2023-03-14T00:19:33;143895.66;;;3.88;78.43
6853;BME280;3465;42.144;24.722;2023-03-14T00:21:59;143811.03;;;3.54;79.24
6853;BME280;3465;42.144;24.722;2023-03-14T00:24:24;143844.59;;;3.68;79.85
6853;BME280;3465;42.144;24.722;2023-03-14T00:26:49;143803.56;;;3.51;79.49
6853;BME280;3465;42.144;24.722;2023-03-14T00:29:15;143844.59;;;3.68;79.04
6853;BME280;3465;42.144;24.722;2023-03-14T00:31:40;143843.38;;;3.67;78.49
6853;BME280;3465;42.144;24.722;2023-03-14T00:34:06;143830.94;;;3.62;78.55
6853;BME280;3465;42.144;24.722;2023-03-14T00:36:31;143802.31;;;3.51;78.24
6853;BME280;3465;42.144;24.722;2023-03-14T00:38:57;143794.84;;;3.48;78.46
6853;BME280;3465;42.144;24.722;2023-03-14T00:41:23;143834.66;;;3.64;78.15
6853;BME280;3465;42.144;24.722;2023-03-14T00:43:49;143847.13;;;3.69;77.14
6853;BME280;3465;42.144;24.722;2023-03-14T00:46:15;143842.13;;;3.67;76.28
6853;BME280;3465;42.144;24.722;2023-03-14T00:48:40;143849.59;;;3.70;76.08
6853;BME280;3465;42.144;24.722;2023-03-14T00:51:08;143852.09;;;3.71;75.48
6853;BME280;3465;42.144;24.722;2023-03-14T00:53:38;143840.88;;;3.66;76.20
6853;BME280;3465;42.144;24.722;2023-03-14T00:56:05;143830.94;;;3.62;75.84
6853;BME280;3465;42.144;24.722;2023-03-14T00:58:31;143824.69;;;3.60;76.23
6853;BME280;3465;42.144;24.722;2023-03-14T01:00:56;143834.66;;;3.64;76.39
6853;BME280;3465;42.144;24.722;2023-03-14T01:03:25;143817.22;;;3.57;76.77
6853;BME280;3465;42.144;24.722;2023-03-14T01:05:50;143799.84;;;3.50;77.31
6853;BME280;3465;42.144;24.722;2023-03-14T01:08:16;143789.84;;;3.46;77.56
6853;BME280;3465;42.144;24.722;2023-03-14T01:10:41;143769.94;;;3.38;77.91
6853;BME280;3465;42.144;24.722;2023-03-14T01:13:07;143764.97;;;3.36;78.12
6853;BME280;3465;42.144;24.722;2023-03-14T01:15:34;143766.22;;;3.36;78.10
6853;BME280;3465;42.144;24.722;2023-03-14T01:18:00;143763.75;;;3.35;78.56
6853;BME280;3465;42.144;24.722;2023-03-14T01:20:25;143740.13;;;3.26;78.66
6853;BME280;3465;42.144;24.722;2023-03-14T01:22:50;143745.06;;;3.28;78.88
6853;BME280;3465;42.144;24.722;2023-03-14T01:25:17;143679.16;;;3.01;78.38
6853;BME280;3465;42.144;24.722;2023-03-14T01:27:43;143772.47;;;3.39;78.26
6853;BME280;3465;42.144;24.722;2023-03-14T01:30:09;143774.94;;;3.40;78.43
6853;BME280;3465;42.144;24.722;2023-03-14T01:32:35;143772.47;;;3.39;78.43
6853;BME280;3465;42.144;24.722;2023-03-14T01:35:01;143715.22;;;3.16;79.13
6853;BME280;3465;42.144;24.722;2023-03-14T01:37:26;143728.94;;;3.21;79.00
6853;BME280;3465;42.144;24.722;2023-03-14T01:39:52;143728.94;;;3.21;79.31
6853;BME280;3465;42.144;24.722;2023-03-14T01:42:18;143718.97;;;3.17;79.37
6853;BME280;3465;42.144;24.722;2023-03-14T01:44:56;143700.31;;;3.10;79.54
6853;BME280;3465;42.144;24.722;2023-03-14T01:47:22;143701.53;;;3.10;79.70
6853;BME280;3465;42.144;24.722;2023-03-14T01:52:21;143661.72;;;2.94;79.40
6853;BME280;3465;42.144;24.722;2023-03-14T01:54:58;143663.00;;;2.94;79.33
6853;BME280;3465;42.144;24.722;2023-03-14T01:57:46;143677.91;;;3.01;79.53
6853;BME280;3465;42.144;24.722;2023-03-14T02:00:15;143665.47;;;2.95;79.82
6853;BME280;3465;42.144;24.722;2023-03-14T02:02:45;143691.59;;;3.06;79.23
6853;BME280;3465;42.144;24.722;2023-03-14T02:05:12;143666.72;;;2.96;80.01
6853;BME280;3465;42.144;24.722;2023-03-14T02:07:48;143644.34;;;2.87;79.92
6853;BME280;3465;42.144;24.722;2023-03-14T02:10:17;143635.63;;;2.83;80.32
6853;BME280;3465;42.144;24.722;2023-03-14T02:12:45;143617.00;;;2.76;80.42
6853;BME280;3465;42.144;24.722;2023-03-14T02:15:11;143645.56;;;2.87;79.42
6853;BME280;3465;42.144;24.722;2023-03-14T02:17:37;143644.34;;;2.87;79.69
6853;BME280;3465;42.144;24.722;2023-03-14T02:20:25;143636.91;;;2.84;79.70
6853;BME280;3465;42.144;24.722;2023-03-14T02:22:53;143633.19;;;2.82;79.92
6853;BME280;3465;42.144;24.722;2023-03-14T02:27:50;143615.75;;;2.75;80.14
6853;BME280;3465;42.144;24.722;2023-03-14T02:30:28;143610.75;;;2.73;80.11
6853;BME280;3465;42.144;24.722;2023-03-14T02:35:37;143619.47;;;2.77;80.94
6853;BME280;3465;42.144;24.722;2023-03-14T02:38:23;143614.50;;;2.75;81.70
6853;BME280;3465;42.144;24.722;2023-03-14T02:40:50;143580.94;;;2.61;82.14
6853;BME280;3465;42.144;24.722;2023-03-14T02:43:15;143605.78;;;2.71;82.49
6853;BME280;3465;42.144;24.722;2023-03-14T02:45:46;143584.69;;;2.63;83.12
6853;BME280;3465;42.144;24.722;2023-03-14T02:48:21;143543.63;;;2.46;83.89
6853;BME280;3465;42.144;24.722;2023-03-14T02:50:48;143558.53;;;2.52;84.23
6853;BME280;3465;42.144;24.722;2023-03-14T02:53:18;143552.34;;;2.50;84.72
6853;BME280;3465;42.144;24.722;2023-03-14T02:55:46;143530.00;;;2.41;84.68
6853;BME280;3465;42.144;24.722;2023-03-14T02:58:12;143542.38;;;2.46;85.65
6853;BME280;3465;42.144;24.722;2023-03-14T03:00:37;143543.63;;;2.46;86.53
6853;BME280;3465;42.144;24.722;2023-03-14T03:03:03;143477.78;;;2.20;86.54
6853;BME280;3465;42.144;24.722;2023-03-14T03:05:31;143549.88;;;2.49;87.38
6853;BME280;3465;42.144;24.722;2023-03-14T03:07:56;143527.47;;;2.40;88.71
6853;BME280;3465;42.144;24.722;2023-03-14T03:10:22;143530.00;;;2.41;89.12
6853;BME280;3465;42.144;24.722;2023-03-14T03:12:48;143537.44;;;2.44;89.31
6853;BME280;3465;42.144;24.722;2023-03-14T03:15:13;143461.63;;;2.13;91.43
6853;BME280;3465;42.144;24.722;2023-03-14T03:17:38;143521.28;;;2.37;92.58
6853;BME280;3465;42.144;24.722;2023-03-14T03:20:04;143488.97;;;2.24;92.58
6853;BME280;3465;42.144;24.722;2023-03-14T03:22:30;143508.84;;;2.32;93.88
6853;BME280;3465;42.144;24.722;2023-03-14T03:24:56;143418.16;;;1.96;94.90
6853;BME280;3465;42.144;24.722;2023-03-14T03:27:21;143428.06;;;2.00;95.21
6853;BME280;3465;42.144;24.722;2023-03-14T03:29:47;143450.47;;;2.09;95.09
6853;BME280;3465;42.144;24.722;2023-03-14T03:32:12;143472.81;;;2.18;95.00
6853;BME280;3465;42.144;24.722;2023-03-14T03:34:38;143470.34;;;2.17;94.13
6853;BME280;3465;42.144;24.722;2023-03-14T03:37:03;143462.84;;;2.14;93.13
6853;BME280;3465;42.144;24.722;2023-03-14T03:39:28;143449.19;;;2.08;91.81
6853;BME280;3465;42.144;24.722;2023-03-14T03:41:54;143430.59;;;2.01;91.86
6853;BME280;3465;42.144;24.722;2023-03-14T03:44:19;143424.34;;;1.98;92.13
6853;BME280;3465;42.144;24.722;2023-03-14T03:46:45;143450.47;;;2.09;91.43
6853;BME280;3465;42.144;24.722;2023-03-14T03:49:10;143444.22;;;2.06;91.37
6853;BME280;3465;42.144;24.722;2023-03-14T03:51:35;143385.84;;;1.83;92.61
6853;BME280;3465;42.144;24.722;2023-03-14T03:54:01;143394.56;;;1.86;93.26
6853;BME280;3465;42.144;24.722;2023-03-14T03:56:26;143390.81;;;1.85;93.64
6853;BME280;3465;42.144;24.722;2023-03-14T03:58:51;143377.13;;;1.79;93.98
6853;BME280;3465;42.144;24.722;2023-03-14T04:01:17;143403.22;;;1.90;93.89
6853;BME280;3465;42.144;24.722;2023-03-14T04:03:42;143388.31;;;1.84;94.58
6853;BME280;3465;42.144;24.722;2023-03-14T04:06:10;143378.41;;;1.80;94.81
6853;BME280;3465;42.144;24.722;2023-03-14T04:08:37;143378.41;;;1.80;95.07
6853;BME280;3465;42.144;24.722;2023-03-14T04:11:03;143363.44;;;1.74;95.44
6853;BME280;3465;42.144;24.722;2023-03-14T04:13:29;143334.91;;;1.62;95.78
6853;BME280;3465;42.144;24.722;2023-03-14T04:15:55;143380.84;;;1.81;95.93
6853;BME280;3465;42.144;24.722;2023-03-14T04:18:21;143394.56;;;1.86;95.52
6853;BME280;3465;42.144;24.722;2023-03-14T04:20:54;143382.13;;;1.81;96.68
6853;BME280;3465;42.144;24.722;2023-03-14T04:23:20;143390.81;;;1.85;96.60
6853;BME280;3465;42.144;24.722;2023-03-14T04:25:45;143369.69;;;1.76;96.59
6853;BME280;3465;42.144;24.722;2023-03-14T04:28:11;143353.53;;;1.70;98.10
6853;BME280;3465;42.144;24.722;2023-03-14T04:30:36;143342.38;;;1.65;97.98
6853;BME280;3465;42.144;24.722;2023-03-14T04:33:02;143352.28;;;1.69;98.09
6853;BME280;3465;42.144;24.722;2023-03-14T04:35:29;143357.25;;;1.71;99.58
6853;BME280;3465;42.144;24.722;2023-03-14T04:37:55;143326.22;;;1.59;100.00
6853;BME280;3465;42.144;24.722;2023-03-14T04:40:20;143358.53;;;1.72;100.00
6853;BME280;3465;42.144;24.722;2023-03-14T04:42:45;143372.16;;;1.77;100.00
6853;BME280;3465;42.144;24.722;2023-03-14T04:45:11;143379.59;;;1.80;100.00
6853;BME280;3465;42.144;24.722;2023-03-14T04:47:37;143374.69;;;1.78;100.00
6853;BME280;3465;42.144;24.722;2023-03-14T04:50:02;143420.63;;;1.97;100.00
6853;BME280;3465;42.144;24.722;2023-03-14T04:52:28;143413.16;;;1.94;100.00
6853;BME280;3465;42.144;24.722;2023-03-14T04:54:53;143423.09;;;1.98;100.00
6853;BME280;3465;42.144;24.722;2023-03-14T04:57:18;143439.25;;;2.04;100.00
6853;BME280;3465;42.144;24.722;2023-03-14T04:59:44;143368.44;;;1.76;100.00
6853;BME280;3465;42.144;24.722;2023-03-14T05:02:09;143460.38;;;2.13;100.00
6853;BME280;3465;42.144;24.722;2023-03-14T05:04:35;143470.34;;;2.17;100.00
6853;BME280;3465;42.144;24.722;2023-03-14T05:07:00;143440.50;;;2.05;100.00
6853;BME280;3465;42.144;24.722;2023-03-14T05:09:26;143482.72;;;2.22;100.00
6853;BME280;3465;42.144;24.722;2023-03-14T05:11:51;143539.91;;;2.45;100.00
6853;BME280;3465;42.144;24.722;2023-03-14T05:14:17;143736.38;;;3.24;100.00
6853;BME280;3465;42.144;24.722;2023-03-14T05:16:42;144025.13;;;4.40;100.00
6853;BME280;3465;42.144;24.722;2023-03-14T05:19:08;144341.63;;;5.68;90.83
6853;BME280;3465;42.144;24.722;2023-03-14T05:21:34;144599.84;;;6.72;81.68
6853;BME280;3465;42.144;24.722;2023-03-14T05:24:00;144882.03;;;7.85;72.57
6853;BME280;3465;42.144;24.722;2023-03-14T05:26:25;145070.78;;;8.61;65.88
6853;BME280;3465;42.144;24.722;2023-03-14T05:28:51;145263.38;;;9.38;59.68
6853;BME280;3465;42.144;24.722;2023-03-14T05:31:16;145414.75;;;9.99;55.50
6853;BME280;3465;42.144;24.722;2023-03-14T05:33:41;145471.16;;;10.22;52.84
6853;BME280;3465;42.144;24.722;2023-03-14T05:36:07;145432.31;;;10.06;51.97
6853;BME280;3465;42.144;24.722;2023-03-14T05:38:33;145462.38;;;10.18;50.89
6853;BME280;3465;42.144;24.722;2023-03-14T05:40:58;145650.25;;;10.93;48.96
6853;BME280;3465;42.144;24.722;2023-03-14T05:43:24;145681.56;;;11.06;47.66
6853;BME280;3465;42.144;24.722;2023-03-14T05:45:49;145626.47;;;10.84;47.59
6853;BME280;3465;42.144;24.722;2023-03-14T05:48:15;145762.97;;;11.38;47.11
6853;BME280;3465;42.144;24.722;2023-03-14T05:50:40;145707.84;;;11.16;45.88
6853;BME280;3465;42.144;24.722;2023-03-14T05:53:05;145616.41;;;10.80;46.59
6853;BME280;3465;42.144;24.722;2023-03-14T05:55:31;145709.13;;;11.17;46.16
6853;BME280;3465;42.144;24.722;2023-03-14T05:57:56;145810.66;;;11.57;45.12
6853;BME280;3465;42.144;24.722;2023-03-14T06:00:22;145773.03;;;11.42;45.40
6853;BME280;3465;42.144;24.722;2023-03-14T06:02:48;145942.31;;;12.10;44.57
6853;BME280;3465;42.144;24.722;2023-03-14T06:05:13;146071.53;;;12.62;43.58
6853;BME280;3465;42.144;24.722;2023-03-14T06:07:38;146273.59;;;13.43;41.75
6853;BME280;3465;42.144;24.722;2023-03-14T06:10:05;146277.34;;;13.44;40.74
6853;BME280;3465;42.144;24.722;2023-03-14T06:12:30;146129.22;;;12.85;42.20
6853;BME280;3465;42.144;24.722;2023-03-14T06:14:56;145972.41;;;12.22;43.41
6853;BME280;3465;42.144;24.722;2023-03-14T06:17:21;145912.22;;;11.98;44.02
6853;BME280;3465;42.144;24.722;2023-03-14T06:19:46;145926.03;;;12.04;43.55
6853;BME280;3465;42.144;24.722;2023-03-14T06:22:12;145974.94;;;12.23;43.81
6853;BME280;3465;42.144;24.722;2023-03-14T06:24:37;145962.38;;;12.18;43.44
6853;BME280;3465;42.144;24.722;2023-03-14T06:27:02;145996.22;;;12.32;43.24
6853;BME280;3465;42.144;24.722;2023-03-14T06:29:29;146266.06;;;13.40;41.61
6853;BME280;3465;42.144;24.722;2023-03-14T06:31:55;146587.66;;;14.68;39.11
6853;BME280;3465;42.144;24.722;2023-03-14T06:34:21;146588.94;;;14.69;37.80
6853;BME280;3465;42.144;24.722;2023-03-14T06:36:46;146680.69;;;15.05;37.83
6853;BME280;3465;42.144;24.722;2023-03-14T06:39:12;146890.75;;;15.89;36.52
6853;BME280;3465;42.144;24.722;2023-03-14T06:41:37;147030.44;;;16.45;35.09
6853;BME280;3465;42.144;24.722;2023-03-14T06:44:03;147224.34;;;17.22;33.79
6853;BME280;3465;42.144;24.722;2023-03-14T06:46:29;147224.34;;;17.22;33.93
6853;BME280;3465;42.144;24.722;2023-03-14T06:48:54;147066.97;;;16.59;34.78
6853;BME280;3465;42.144;24.722;2023-03-14T06:51:20;147035.50;;;16.47;34.92
6853;BME280;3465;42.144;24.722;2023-03-14T06:53:45;147111.00;;;16.77;34.61
6853;BME280;3465;42.144;24.722;2023-03-14T06:56:11;147229.41;;;17.24;34.04
6853;BME280;3465;42.144;24.722;2023-03-14T06:58:36;147240.72;;;17.29;33.38
6853;BME280;3465;42.144;24.722;2023-03-14T07:01:02;147523.06;;;18.41;32.40
6853;BME280;3465;42.144;24.722;2023-03-14T07:03:27;147627.72;;;18.83;31.61
6853;BME280;3465;42.144;24.722;2023-03-14T07:05:53;147425.97;;;18.02;31.90
6853;BME280;3465;42.144;24.722;2023-03-14T07:08:19;147470.06;;;18.20;32.02
6853;BME280;3465;42.144;24.722;2023-03-14T07:10:44;147529.34;;;18.43;31.66
6853;BME280;3465;42.144;24.722;2023-03-14T07:13:10;147784.16;;;19.45;30.69
6853;BME280;3465;42.144;24.722;2023-03-14T07:15:35;147809.41;;;19.55;29.40
6853;BME280;3465;42.144;24.722;2023-03-14T07:18:00;147637.81;;;18.87;30.20
6853;BME280;3465;42.144;24.722;2023-03-14T07:20:26;147510.41;;;18.36;31.42
6853;BME280;3465;42.144;24.722;2023-03-14T07:22:51;147834.66;;;19.65;30.10
6853;BME280;3465;42.144;24.722;2023-03-14T07:25:17;148036.66;;;20.45;29.02
6853;BME280;3465;42.144;24.722;2023-03-14T07:27:44;148049.28;;;20.50;28.71
6853;BME280;3465;42.144;24.722;2023-03-14T07:30:10;148235.00;;;21.24;27.39
6853;BME280;3465;42.144;24.722;2023-03-14T07:32:36;148261.53;;;21.35;27.37
6853;BME280;3465;42.144;24.722;2023-03-14T07:35:02;148461.28;;;22.14;26.81
6853;BME280;3465;42.144;24.722;2023-03-14T07:37:27;148585.25;;;22.63;26.08
6853;BME280;3465;42.144;24.722;2023-03-14T07:39:53;148366.47;;;21.76;26.29
6853;BME280;3465;42.144;24.722;2023-03-14T07:42:18;147857.34;;;19.74;28.45
6853;BME280;3465;42.144;24.722;2023-03-14T07:44:43;147876.25;;;19.81;28.68
6853;BME280;3465;42.144;24.722;2023-03-14T07:47:09;147945.69;;;20.09;28.56
6853;BME280;3465;42.144;24.722;2023-03-14T07:49:34;148060.66;;;20.55;27.88
6853;BME280;3465;42.144;24.722;2023-03-14T07:51:59;148146.53;;;20.89;27.79
6853;BME280;3465;42.144;24.722;2023-03-14T07:54:25;148128.84;;;20.82;27.69
6853;BME280;3465;42.144;24.722;2023-03-14T07:56:51;148204.66;;;21.12;27.64
6853;BME280;3465;42.144;24.722;2023-03-14T07:59:17;147868.69;;;19.78;28.36
6853;BME280;3465;42.144;24.722;2023-03-14T08:01:43;148051.81;;;20.51;28.30
6853;BME280;3465;42.144;24.722;2023-03-14T08:04:08;148233.72;;;21.23;27.08
6853;BME280;3465;42.144;24.722;2023-03-14T08:06:35;148405.69;;;21.92;26.46
6853;BME280;3465;42.144;24.722;2023-03-14T08:09:01;148463.81;;;22.15;26.23
6853;BME280;3465;42.144;24.722;2023-03-14T08:11:26;148260.25;;;21.34;26.58
6853;BME280;3465;42.144;24.722;2023-03-14T08:13:52;148169.31;;;20.98;26.51
6853;BME280;3465;42.144;24.722;2023-03-14T08:16:17;148184.44;;;21.04;26.84
6853;BME280;3465;42.144;24.722;2023-03-14T08:18:44;148160.41;;;20.94;26.89
6853;BME280;3465;42.144;24.722;2023-03-14T08:21:09;148157.91;;;20.93;26.58
6853;BME280;3465;42.144;24.722;2023-03-14T08:23:35;148295.66;;;21.48;26.46
6853;BME280;3465;42.144;24.722;2023-03-14T08:26:00;148481.53;;;22.22;25.99
6853;BME280;3465;42.144;24.722;2023-03-14T08:28:26;148396.81;;;21.88;25.69
6853;BME280;3465;42.144;24.722;2023-03-14T08:30:58;148625.72;;;22.79;25.33
6853;BME280;3465;42.144;24.722;2023-03-14T08:33:25;148938.41;;;24.03;24.26
6853;BME280;3465;42.144;24.722;2023-03-14T08:35:53;148902.94;;;23.89;23.72
6853;BME280;3465;42.144;24.722;2023-03-14T08:38:18;149011.88;;;24.32;24.18
6853;BME280;3465;42.144;24.722;2023-03-14T08:40:44;148902.94;;;23.89;23.41
6853;BME280;3465;42.144;24.722;2023-03-14T08:43:09;148925.75;;;23.98;23.93
6853;BME280;3465;42.144;24.722;2023-03-14T08:45:34;149015.66;;;24.34;23.33
6853;BME280;3465;42.144;24.722;2023-03-14T08:48:00;149020.75;;;24.36;23.78
6853;BME280;3465;42.144;24.722;2023-03-14T08:50:26;148800.38;;;23.48;23.63
6853;BME280;3465;42.144;24.722;2023-03-14T08:52:51;148906.72;;;23.90;23.58
6853;BME280;3465;42.144;24.722;2023-03-14T08:55:17;148886.47;;;23.82;23.50
6853;BME280;3465;42.144;24.722;2023-03-14T08:57:42;148821.91;;;23.57;23.59
6853;BME280;3465;42.144;24.722;2023-03-14T09:00:08;149001.72;;;24.28;23.11
6853;BME280;3465;42.144;24.722;2023-03-14T09:02:40;149118.31;;;24.74;22.44
6853;BME280;3465;42.144;24.722;2023-03-14T09:05:06;149200.63;;;25.07;22.43
6853;BME280;3465;42.144;24.722;2023-03-14T09:07:31;148843.41;;;23.65;23.64
6853;BME280;3465;42.144;24.722;2023-03-14T09:09:57;148732.00;;;23.21;24.39
6853;BME280;3465;42.144;24.722;2023-03-14T09:12:22;148901.66;;;23.88;23.57
6853;BME280;3465;42.144;24.722;2023-03-14T09:14:48;149042.22;;;24.44;22.71
6853;BME280;3465;42.144;24.722;2023-03-14T09:17:13;149080.25;;;24.59;23.13
6853;BME280;3465;42.144;24.722;2023-03-14T09:19:38;149185.44;;;25.01;22.71
6853;BME280;3465;42.144;24.722;2023-03-14T09:22:04;149151.22;;;24.87;22.53
6853;BME280;3465;42.144;24.722;2023-03-14T09:24:30;149162.66;;;24.92;22.83
6853;BME280;3465;42.144;24.722;2023-03-14T09:26:55;149191.75;;;25.03;22.20
6853;BME280;3465;42.144;24.722;2023-03-14T09:29:22;149241.19;;;25.23;22.10
6853;BME280;3465;42.144;24.722;2023-03-14T09:31:47;149057.47;;;24.50;23.10
6853;BME280;3465;42.144;24.722;2023-03-14T09:34:13;148807.97;;;23.51;23.08
6853;BME280;3465;42.144;24.722;2023-03-14T09:36:38;149089.13;;;24.63;22.33
6853;BME280;3465;42.144;24.722;2023-03-14T09:39:04;149156.28;;;24.89;21.85
6853;BME280;3465;42.144;24.722;2023-03-14T09:41:34;149094.22;;;24.65;22.00
6853;BME280;3465;42.144;24.722;2023-03-14T09:46:43;148937.13;;;24.02;22.36
6853;BME280;3465;42.144;24.722;2023-03-14T09:49:12;148913.03;;;23.93;22.63
6853;BME280;3465;42.144;24.722;2023-03-14T09:51:42;148506.81;;;22.32;23.64
6853;BME280;3465;42.144;24.722;2023-03-14T09:54:18;148616.84;;;22.76;23.91
6853;BME280;3465;42.144;24.722;2023-03-14T09:56:49;148904.16;;;23.89;23.11
6853;BME280;3465;42.144;24.722;2023-03-14T09:59:15;148967.53;;;24.15;22.42
6853;BME280;3465;42.144;24.722;2023-03-14T10:01:41;148528.28;;;22.40;23.05
6853;BME280;3465;42.144;24.722;2023-03-14T10:04:10;148513.13;;;22.34;24.00
6853;BME280;3465;42.144;24.722;2023-03-14T10:06:39;148552.31;;;22.50;24.41
6853;BME280;3465;42.144;24.722;2023-03-14T10:09:04;148365.22;;;21.76;24.09
6853;BME280;3465;42.144;24.722;2023-03-14T10:11:31;148552.31;;;22.50;23.66
6853;BME280;3465;42.144;24.722;2023-03-14T10:16:30;148616.84;;;22.76;22.91
6853;BME280;3465;42.144;24.722;2023-03-14T10:19:09;148259.00;;;21.34;24.48
6853;BME280;3465;42.144;24.722;2023-03-14T10:21:40;148083.34;;;20.64;25.57
6853;BME280;3465;42.144;24.722;2023-03-14T10:24:26;148092.22;;;20.67;26.27
6853;BME280;3465;42.144;24.722;2023-03-14T10:26:54;148243.88;;;21.27;25.71
6853;BME280;3465;42.144;24.722;2023-03-14T10:29:20;148544.72;;;22.47;24.85
6853;BME280;3465;42.144;24.722;2023-03-14T10:32:10;148982.72;;;24.21;23.06
6853;BME280;3465;42.144;24.722;2023-03-14T10:34:43;149199.41;;;25.06;22.40
6853;BME280;3465;42.144;24.722;2023-03-14T10:37:21;149440.31;;;26.02;21.54
6853;BME280;3465;42.144;24.722;2023-03-14T10:39:49;149374.31;;;25.76;20.76
6853;BME280;3465;42.144;24.722;2023-03-14T10:42:24;149374.31;;;25.76;21.08
6853;BME280;3465;42.144;24.722;2023-03-14T10:44:56;149366.72;;;25.73;20.60
6853;BME280;3465;42.144;24.722;2023-03-14T10:47:26;149318.56;;;25.54;20.62
6853;BME280;3465;42.144;24.722;2023-03-14T10:49:54;149346.44;;;25.65;20.69
6853;BME280;3465;42.144;24.722;2023-03-14T10:52:27;149453.00;;;26.07;20.61
6853;BME280;3465;42.144;24.722;2023-03-14T10:55:00;149721.97;;;27.13;20.14
6853;BME280;3465;42.144;24.722;2023-03-14T10:57:27;149376.88;;;25.77;20.24
6853;BME280;3465;42.144;24.722;2023-03-14T10:59:53;149260.22;;;25.30;21.27
6853;BME280;3465;42.144;24.722;2023-03-14T11:05:39;148876.31;;;23.78;22.28
6853;BME280;3465;42.144;24.722;2023-03-14T11:08:18;148710.47;;;23.13;23.16
6853;BME280;3465;42.144;24.722;2023-03-14T11:10:48;148212.25;;;21.15;25.20
6853;BME280;3465;42.144;24.722;2023-03-14T11:13:44;148245.09;;;21.28;24.75
6853;BME280;3465;42.144;24.722;2023-03-14T11:22:36;147888.88;;;19.86;27.01
6853;BME280;3465;42.144;24.722;2023-03-14T11:25:21;147954.53;;;20.13;26.54
6853;BME280;3465;42.144;24.722;2023-03-14T11:30:51;147911.63;;;19.96;27.10
6853;BME280;3465;42.144;24.722;2023-03-14T11:33:22;147925.50;;;20.01;27.52
6853;BME280;3465;42.144;24.722;2023-03-14T11:35:58;148032.88;;;20.44;26.46
6853;BME280;3465;42.144;24.722;2023-03-14T11:38:30;148063.16;;;20.56;27.16
6853;BME280;3465;42.144;24.722;2023-03-14T11:40:59;147846.00;;;19.69;27.42
6853;BME280;3465;42.144;24.722;2023-03-14T11:43:33;147708.44;;;19.15;28.42
6853;BME280;3465;42.144;24.722;2023-03-14T11:46:10;147893.94;;;19.88;27.66
6853;BME280;3465;42.144;24.722;2023-03-14T11:51:29;148093.50;;;20.68;26.96
6853;BME280;3465;42.144;24.722;2023-03-14T11:54:18;148034.09;;;20.44;26.98
6853;BME280;3465;42.144;24.722;2023-03-14T11:56:55;147955.81;;;20.13;27.19
6853;BME280;3465;42.144;24.722;2023-03-14T12:02:02;147920.47;;;19.99;27.42
6853;BME280;3465;42.144;24.722;2023-03-14T12:07:12;147620.16;;;18.80;28.98
6853;BME280;3465;42.144;24.722;2023-03-14T12:09:41;147631.50;;;18.84;29.42
6853;BME280;3465;42.144;24.722;2023-03-14T12:12:12;147757.69;;;19.34;28.87
6853;BME280;3465;42.144;24.722;2023-03-14T12:14:45;147658.00;;;18.95;29.51
6853;BME280;3465;42.144;24.722;2023-03-14T12:17:25;147864.91;;;19.77;29.34
6853;BME280;3465;42.144;24.722;2023-03-14T12:20:19;147854.84;;;19.73;29.05
6853;BME280;3465;42.144;24.722;2023-03-14T12:22:52;147617.66;;;18.79;30.03
6853;BME280;3465;42.144;24.722;2023-03-14T12:25:31;147641.59;;;18.88;30.76
6853;BME280;3465;42.144;24.722;2023-03-14T12:35:45;147501.56;;;18.32;31.20
6853;BME280;3465;42.144;24.722;2023-03-14T12:43:32;147578.53;;;18.63;30.95
6853;BME280;3465;42.144;24.722;2023-03-14T12:48:44;147708.44;;;19.15;30.77
6853;BME280;3465;42.144;24.722;2023-03-14T12:51:16;147698.34;;;19.11;31.45
6853;BME280;3465;42.144;24.722;2023-03-14T13:01:46;147739.97;;;19.27;31.25
6853;BME280;3465;42.144;24.722;2023-03-14T13:04:12;147597.47;;;18.71;31.47
6853;BME280;3465;42.144;24.722;2023-03-14T13:06:53;147526.84;;;18.42;32.13
6853;BME280;3465;42.144;24.722;2023-03-14T13:11:53;147373.03;;;17.81;33.34
6853;BME280;3465;42.144;24.722;2023-03-14T13:14:19;147452.41;;;18.13;32.91
6853;BME280;3465;42.144;24.722;2023-03-14T13:16:46;147504.13;;;18.33;32.99
6853;BME280;3465;42.144;24.722;2023-03-14T13:19:27;147475.13;;;18.22;33.05
6853;BME280;3465;42.144;24.722;2023-03-14T13:22:01;147213.03;;;17.17;34.13
6853;BME280;3465;42.144;24.722;2023-03-14T13:24:28;147214.28;;;17.18;34.43
6853;BME280;3465;42.144;24.722;2023-03-14T13:26:55;147220.56;;;17.21;34.26
6853;BME280;3465;42.144;24.722;2023-03-14T13:29:23;147165.19;;;16.98;34.82
6853;BME280;3465;42.144;24.722;2023-03-14T13:31:51;147117.34;;;16.79;34.97
6853;BME280;3465;42.144;24.722;2023-03-14T13:34:18;147210.47;;;17.16;35.11
6853;BME280;3465;42.144;24.722;2023-03-14T13:36:43;147299.94;;;17.52;34.02
6853;BME280;3465;42.144;24.722;2023-03-14T13:39:20;147361.69;;;17.77;33.91
6853;BME280;3465;42.144;24.722;2023-03-14T13:41:50;147385.63;;;17.86;33.77
6853;BME280;3465;42.144;24.722;2023-03-14T13:44:18;147383.13;;;17.85;33.28
6853;BME280;3465;42.144;24.722;2023-03-14T13:46:47;147205.47;;;17.14;34.04
6853;BME280;3465;42.144;24.722;2023-03-14T13:49:22;147113.56;;;16.78;34.66
6853;BME280;3465;42.144;24.722;2023-03-14T13:51:49;147122.34;;;16.81;35.02
6853;BME280;3465;42.144;24.722;2023-03-14T13:54:18;147069.47;;;16.60;35.46
6853;BME280;3465;42.144;24.722;2023-03-14T13:56:45;147100.97;;;16.73;35.23
6853;BME280;3465;42.144;24.722;2023-03-14T13:59:29;146958.69;;;16.16;35.45
6853;BME280;3465;42.144;24.722;2023-03-14T14:01:57;147010.28;;;16.37;36.15
6853;BME280;3465;42.144;24.722;2023-03-14T14:04:25;147095.91;;;16.71;35.39
6853;BME280;3465;42.144;24.722;2023-03-14T14:06:59;147045.53;;;16.51;35.36